createdAt,value
2023-01-10T00:02:59.795Z,104621.25
2023-01-10T00:08:04.240Z,104622.28
2023-01-10T00:13:25.239Z,104636.22
2023-01-10T00:18:29.031Z,104639.41
2023-01-10T00:23:31.633Z,104640.50
2023-01-10T00:33:55.767Z,104633.59
2023-01-10T00:38:58.588Z,104645.50
2023-01-10T00:44:01.300Z,104618.28
2023-01-10T00:49:08.468Z,104626.84
2023-01-10T00:54:11.962Z,104623.75
2023-01-10T00:59:14.685Z,104629.97
2023-01-10T01:04:18.075Z,104654.19
2023-01-10T01:09:20.837Z,104652.13
2023-01-10T01:14:25.163Z,104650.06
2023-01-10T01:19:28.672Z,104645.78
2023-01-10T01:24:35.534Z,104645.31
2023-01-10T01:29:43.255Z,104646.13
2023-01-10T01:34:46.261Z,104642.63
2023-01-10T01:39:48.898Z,104644.06
2023-01-10T01:45:09.921Z,104655.97
2023-01-10T01:50:38.505Z,104644.44
2023-01-10T01:55:43.729Z,104658.19
2023-01-10T02:00:46.417Z,104660.41
2023-01-10T02:05:49.460Z,104659.63
2023-01-10T02:10:59.002Z,104667.72
2023-01-10T02:16:01.896Z,104680.06
2023-01-10T02:21:24.127Z,104677.00
2023-01-10T02:26:51.331Z,104686.75
2023-01-10T02:31:54.857Z,104690.31
2023-01-10T02:37:02.036Z,104681.25
2023-01-10T02:42:51.548Z,104705.75
2023-01-10T02:47:56.040Z,104702.13
2023-01-10T02:53:02.764Z,104712.75
2023-01-10T02:58:26.574Z,104714.47
2023-01-10T03:04:05.479Z,104718.28
2023-01-10T03:09:22.049Z,104728.84
2023-01-10T03:14:28.832Z,104734.38
2023-01-10T03:19:39.686Z,104734.97
2023-01-10T03:24:54.699Z,104735.78
2023-01-10T03:30:15.933Z,104740.97
2023-01-10T03:35:22.946Z,104742.72
2023-01-10T03:40:42.112Z,104747.09
2023-01-10T03:45:51.769Z,104737.84
2023-01-10T03:50:55.137Z,104774.78
2023-01-10T03:55:57.907Z,104752.19
2023-01-10T04:01:03.080Z,104775.22
2023-01-10T04:06:05.988Z,104782.41
2023-01-10T04:11:08.678Z,104776.44
2023-01-10T04:16:12.453Z,104793.50
2023-01-10T04:21:15.060Z,104818.41
2023-01-10T04:26:17.812Z,104829.75
2023-01-10T04:31:22.702Z,104821.72
2023-01-10T04:36:26.009Z,104813.16
2023-01-10T04:41:28.808Z,104821.19
2023-01-10T04:46:32.561Z,104830.44
2023-01-10T04:51:35.661Z,104830.44
2023-01-10T04:56:38.753Z,104837.59
2023-01-10T05:01:42.707Z,104843.44
2023-01-10T05:06:45.346Z,104849.41
2023-01-10T05:11:47.871Z,104864.78
2023-01-10T05:16:50.405Z,104880.34
2023-01-10T05:21:54.084Z,104884.09
2023-01-10T05:26:56.634Z,104894.50
2023-01-10T05:31:59.350Z,104894.41
2023-01-10T05:37:01.941Z,104902.47
2023-01-10T05:42:06.045Z,104907.78
2023-01-10T05:47:08.546Z,104920.81
2023-01-10T05:52:11.099Z,104905.88
2023-01-10T05:57:13.961Z,104925.41
2023-01-10T06:02:16.724Z,104926.63
2023-01-10T06:07:19.330Z,104934.00
2023-01-10T06:12:22.014Z,104932.78
2023-01-10T06:17:24.625Z,104944.22
2023-01-10T06:22:28.349Z,104958.13
2023-01-10T06:27:30.870Z,104962.44
2023-01-10T06:32:33.588Z,104976.94
2023-01-10T06:37:55.954Z,104968.31
2023-01-10T06:42:59.401Z,104977.09
2023-01-10T06:48:02.076Z,104973.00
2023-01-10T06:53:05.369Z,104972.50
2023-01-10T06:58:08.917Z,104974.28
2023-01-10T07:08:45.308Z,104983.03
2023-01-10T07:13:48.651Z,104986.50
2023-01-10T07:18:51.569Z,104984.47
2023-01-10T07:23:54.308Z,104988.22
2023-01-10T07:28:57.250Z,104981.84
2023-01-10T07:33:59.900Z,104986.06
2023-01-10T07:39:05.954Z,104981.25
2023-01-10T07:44:33.012Z,104978.56
2023-01-10T07:49:59.267Z,104979.78
2023-01-10T07:55:02.131Z,104980.16
2023-01-10T08:00:06.677Z,104978.19
2023-01-10T08:05:10.209Z,104987.47
2023-01-10T08:10:13.732Z,104989.97
2023-01-10T08:15:16.527Z,104983.31
2023-01-10T08:20:19.447Z,104987.56
2023-01-10T08:26:03.490Z,104969.25
2023-01-10T08:31:22.029Z,104969.56
2023-01-10T08:36:56.693Z,104965.44
2023-01-10T08:42:11.266Z,104977.38
2023-01-10T08:47:14.045Z,104981.00
2023-01-10T08:52:17.660Z,104967.31
2023-01-10T08:57:23.436Z,104979.09
2023-01-10T09:02:46.120Z,104979.41
2023-01-10T09:07:49.086Z,104969.13
2023-01-10T09:12:55.964Z,104964.59
2023-01-10T09:18:21.471Z,104952.06
2023-01-10T09:23:27.533Z,104950.63
2023-01-10T09:28:30.230Z,104949.56
2023-01-10T09:33:45.617Z,104939.63
2023-01-10T09:38:51.211Z,104938.91
2023-01-10T09:44:22.716Z,104944.38
2023-01-10T09:50:01.391Z,104942.22
2023-01-10T09:55:27.758Z,104934.81
2023-01-10T10:00:54.342Z,104933.75
2023-01-10T10:06:10.550Z,104938.13
2023-01-10T10:11:26.051Z,104948.91
2023-01-10T10:16:45.934Z,104946.91
2023-01-10T10:21:51.495Z,104945.47
2023-01-10T10:27:09.649Z,104935.19
2023-01-10T10:32:12.198Z,104956.66
2023-01-10T10:37:20.925Z,104956.81
2023-01-10T10:42:32.719Z,104952.09
2023-01-10T10:47:39.137Z,104958.75
2023-01-10T10:52:44.625Z,104953.13
2023-01-10T10:57:59.524Z,104961.81
2023-01-10T11:03:24.226Z,104960.41
2023-01-10T11:08:28.753Z,104962.53
2023-01-10T11:13:40.919Z,104952.56
2023-01-10T11:18:47.348Z,104958.72
2023-01-10T11:23:56.954Z,104962.91
2023-01-10T11:29:08.308Z,104969.59
2023-01-10T11:34:29.127Z,104971.56
2023-01-10T11:39:33.504Z,104966.25
2023-01-10T11:44:36.309Z,104981.63
2023-01-10T11:49:44.153Z,104991.56
2023-01-10T11:54:49.828Z,104995.78
2023-01-10T12:00:01.523Z,105005.63
2023-01-10T12:05:17.793Z,105011.38
2023-01-10T12:10:22.648Z,105015.41
2023-01-10T12:15:32.329Z,105019.63
2023-01-10T12:20:45.646Z,105017.78
2023-01-10T12:25:53.217Z,104990.25
2023-01-10T12:31:01.476Z,105021.16
2023-01-10T12:36:10.289Z,105028.34
2023-01-10T12:41:40.120Z,105025.38
2023-01-10T12:47:06.588Z,105044.09
2023-01-10T12:52:36.414Z,105046.56
2023-01-10T12:57:44.269Z,105050.44
2023-01-10T13:02:49.840Z,105033.91
2023-01-10T13:07:59.873Z,105038.06
2023-01-10T13:13:26.538Z,105036.97
2023-01-10T13:18:32.489Z,105033.16
2023-01-10T13:23:52.453Z,105030.19
2023-01-10T13:29:04.301Z,105034.69
2023-01-10T13:34:12.257Z,105041.84
2023-01-10T13:39:27.931Z,105033.91
2023-01-10T13:44:30.383Z,105042.84
2023-01-10T13:49:43.988Z,105033.63
2023-01-10T13:55:01.011Z,105043.00
2023-01-10T14:00:40.159Z,105040.47
2023-01-10T14:05:51.541Z,105050.38
2023-01-10T14:11:13.227Z,105055.13
2023-01-10T14:21:45.579Z,105047.59
2023-01-10T14:26:48.819Z,105062.97
2023-01-10T14:37:24.940Z,105072.00
2023-01-10T14:42:29.381Z,105068.81
2023-01-10T14:47:35.782Z,105071.78
2023-01-10T14:52:45.254Z,105049.34
2023-01-10T14:58:17.491Z,105071.28
2023-01-10T15:03:23.709Z,105070.41
2023-01-10T15:08:29.687Z,105076.63
2023-01-10T15:13:38.525Z,105069.56
2023-01-10T15:18:46.099Z,105088.16
2023-01-10T15:23:50.250Z,105089.03
2023-01-10T15:29:34.146Z,105096.59
2023-01-10T15:34:38.961Z,105097.31
2023-01-10T15:39:41.858Z,105101.34
2023-01-10T15:44:48.854Z,105108.78
2023-01-10T15:49:57.256Z,105117.75
2023-01-10T15:55:00.044Z,105117.06
2023-01-10T16:00:03.130Z,105117.94
2023-01-10T16:05:18.003Z,105121.59
2023-01-10T16:10:37.213Z,105135.16
2023-01-10T16:15:47.695Z,105140.81
2023-01-10T16:20:52.718Z,105145.72
2023-01-10T16:26:01.352Z,105146.00
2023-01-10T16:31:07.114Z,105146.34
2023-01-10T16:36:16.762Z,105136.63
2023-01-10T16:41:37.938Z,105151.63
2023-01-10T16:46:40.436Z,105155.47
2023-01-10T16:51:43.238Z,105157.56
2023-01-10T16:56:49.408Z,105157.84
2023-01-10T17:01:55.631Z,105166.25
2023-01-10T17:06:59.410Z,105163.53
2023-01-10T17:12:10.960Z,105162.41
2023-01-10T17:17:13.589Z,105164.78
2023-01-10T17:22:16.339Z,105171.94
2023-01-10T17:27:18.817Z,105160.66
2023-01-10T17:32:21.348Z,105156.19
2023-01-10T17:37:23.919Z,105160.56
2023-01-10T17:42:26.744Z,105148.41
2023-01-10T17:47:29.238Z,105162.94
2023-01-10T17:52:32.226Z,105168.19
2023-01-10T17:57:38.286Z,105161.72
2023-01-10T18:02:40.916Z,105175.81
2023-01-10T18:07:43.466Z,105182.47
2023-01-10T18:12:46.127Z,105164.94
2023-01-10T18:17:49.022Z,105170.66
2023-01-10T18:23:10.060Z,105162.25
2023-01-10T18:28:12.677Z,105169.00
2023-01-10T18:33:15.431Z,105177.50
2023-01-10T18:38:18.269Z,105179.94
2023-01-10T18:43:26.301Z,105163.09
2023-01-10T18:48:29.301Z,105204.94
2023-01-10T18:53:33.453Z,105190.69
2023-01-10T18:58:38.877Z,105202.25
2023-01-10T19:03:42.517Z,105197.97
2023-01-10T19:08:46.899Z,105200.66
2023-01-10T19:13:52.367Z,105199.72
2023-01-10T19:24:22.544Z,105200.88
2023-01-10T19:29:25.120Z,105192.00
2023-01-10T19:34:27.737Z,105202.16
2023-01-10T19:39:30.233Z,105197.97
2023-01-10T19:44:33.089Z,105193.38
2023-01-10T19:49:37.314Z,105199.84
2023-01-10T19:54:39.941Z,105217.09
2023-01-10T19:59:42.786Z,105210.50
2023-01-10T20:04:46.224Z,105226.41
2023-01-10T20:09:49.139Z,105226.81
2023-01-10T20:14:52.107Z,105235.22
2023-01-10T20:19:55.557Z,105243.41
2023-01-10T20:24:58.379Z,105228.88
2023-01-10T20:30:05.125Z,105230.56
2023-01-10T20:35:08.118Z,105236.78
2023-01-10T20:40:12.279Z,105241.88
2023-01-10T20:45:15.025Z,105238.00
2023-01-10T20:50:17.821Z,105235.47
2023-01-10T20:55:20.727Z,105241.94
2023-01-10T21:00:24.564Z,105243.47
2023-01-10T21:05:28.472Z,105249.53
2023-01-10T21:10:31.167Z,105250.47
2023-01-10T21:15:33.804Z,105249.53
2023-01-10T21:20:36.470Z,105246.25
2023-01-10T21:25:39.222Z,105232.03
2023-01-10T21:30:41.819Z,105244.41
2023-01-10T21:35:54.512Z,105249.19
2023-01-10T21:41:05.291Z,105245.88
2023-01-10T21:46:07.815Z,105236.41
2023-01-10T21:51:10.298Z,105233.59
2023-01-10T21:56:12.811Z,105232.34
2023-01-10T22:01:16.146Z,105228.13
2023-01-10T22:06:18.916Z,105222.66
2023-01-10T22:11:21.614Z,105228.91
2023-01-10T22:16:24.227Z,105231.75
2023-01-10T22:21:29.542Z,105219.84
2023-01-10T22:26:32.021Z,105218.97
2023-01-10T22:31:34.682Z,105207.47
2023-01-10T22:36:40.159Z,105223.25
2023-01-10T22:41:42.690Z,105222.06
2023-01-10T22:46:52.754Z,105226.00
2023-01-10T22:51:55.412Z,105223.25
2023-01-10T22:56:59.349Z,105195.94
2023-01-10T23:02:01.988Z,105217.31
2023-01-10T23:07:07.741Z,105216.44
2023-01-10T23:12:10.240Z,105231.16
2023-01-10T23:17:12.871Z,105239.66
2023-01-10T23:22:15.914Z,105249.00
2023-01-10T23:27:18.378Z,105244.47
2023-01-10T23:32:23.471Z,105235.34
2023-01-10T23:37:26.027Z,105242.53
2023-01-10T23:42:28.636Z,105241.19
2023-01-10T23:47:31.151Z,105244.28
2023-01-10T23:52:34.635Z,105242.44
2023-01-10T23:57:37.264Z,105241.78
